Hlavní strana
METAR-TAF:

METAR-TAF

Letiště :

Olney-Noble Airport

Olney-Noble, Illinois, Spojené státy americké

zeměpisná šířka: 38-43-19N, zeměpisná délka: 088-10-35W, výška: 147 m

Aktuální stav počasí

Zpráva byla vytvořena před 24 minutami, v 03:15 UTC
Bezvětří
Teplota 4°C
Vlhkost vzduchu 93%
Tlak 1030 hPa
Viditelnost: 16.1 km
Jasno

METAR: KOLY 190315Z AUTO 00000KT 10SM CLR 04/03 A3041 RMK AO2 T00410031

Čas: 22:39 (03:39 UTC)


TAF: chybějící

Stav a předpovědi počasí z více než 4 000 letišť (zprávy METAR a TAF).

Červené a žluté tečky na mapě představují dostupné meteorologické stanice.

Když kurzor umístíte na tečku, zobrazí se název stanice.

Pak kliknutím zobrazíte stav a předpověď počasí.

Chcete-li změnit mapu, kliknutím na zelené tlačítko se znaménkem +mapu přiblížíte, kliknutím na zelené tlačítko se znaménkem – mapu oddálíte a kliknutím na zelené šipky přejdete na sousední mapy.


METAR-TAF: